Time;durP1;ratioP1;P1;durP2;ratioP2;P2;SDS_P1;SDS_P2;PMS_P1;PMS_P2;Temp;Humidity;BMP_temperature;BMP_pressure;BME280_temperature;BME280_humidity;BME280_pressure;Samples;Min_cycle;Max_cycle;Signal;HPM_P1;HPM_P2
2022/10/31 00:14:52;;;;;;;13.07;4.87;;;;;;;;;;31249644;28;20571;-77
2022/10/31 00:29:54;;;;;;;14.20;5.93;;;;;;;;;;31249463;28;20515;-78
2022/10/31 00:44:56;;;;;;;18.57;5.23;;;;;;;;;;31244746;28;20050;-78
2022/10/31 00:59:58;;;;;;;16.37;7.23;;;;;;;;;;31250696;28;20045;-78
2022/10/31 01:15:00;;;;;;;21.25;8.20;;;;;;;;;;31243319;28;20062;-78
2022/10/31 01:30:01;;;;;;;22.13;8.67;;;;;;;;;;31243697;28;20057;-78
2022/10/31 01:45:05;;;;;;;27.10;8.60;;;;;;;;;;31243895;28;20060;-78
2022/10/31 02:00:08;;;;;;;49.80;26.00;;;;;;;;;;31247375;28;20058;-78
2022/10/31 02:15:10;;;;;;;23.23;7.10;;;;;;;;;;31261891;28;20065;-78
2022/10/31 02:30:27;;;;;;;14.97;7.53;;;;;;;;;;31265415;28;20050;-77
2022/10/31 02:45:47;;;;;;;13.57;5.80;;;;;;;;;;31261315;28;20061;-77
2022/10/31 03:01:01;;;;;;;14.70;5.17;;;;;;;;;;31261431;28;20046;-77
2022/10/31 03:16:09;;;;;;;14.17;4.70;;;;;;;;;;31258734;28;20058;-78
2022/10/31 03:31:11;;;;;;;9.13;4.03;;;;;;;;;;31257379;28;20123;-78
2022/10/31 03:46:13;;;;;;;9.70;4.50;;;;;;;;;;31255036;28;20045;-78
2022/10/31 04:01:16;;;;;;;14.03;4.80;;;;;;;;;;31258827;28;20057;-77
2022/10/31 10:33:27;;;;;;;1.50;0.90;;;;;;;;;;31653355;28;20740;-79
2022/10/31 10:48:29;;;;;;;1.95;0.90;;;;;;;;;;31549374;28;20467;-79
2022/10/31 11:03:36;;;;;;;1.50;1.10;;;;;;;;;;31618904;28;20418;-78
2022/10/31 11:18:39;;;;;;;1.00;0.90;;;;;;;;;;31318412;28;20054;-79
2022/10/31 11:33:44;;;;;;;1.17;0.90;;;;;;;;;;31097896;28;20559;-76
2022/10/31 11:48:48;;;;;;;1.35;0.90;;;;;;;;;;31045894;28;20053;-77
2022/10/31 12:03:52;;;;;;;1.42;0.90;;;;;;;;;;31075407;28;20114;-77
2022/10/31 12:19:00;;;;;;;0.73;0.60;;;;;;;;;;31094200;28;20159;-79
2022/10/31 12:34:22;;;;;;;2.03;1.10;;;;;;;;;;31106728;28;20054;-78
2022/10/31 12:49:27;;;;;;;1.03;0.60;;;;;;;;;;31072182;28;20512;-78
2022/10/31 13:04:29;;;;;;;0.80;0.60;;;;;;;;;;31072474;28;20046;-77
2022/10/31 13:19:35;;;;;;;1.60;0.70;;;;;;;;;;31074275;28;20049;-79
2022/10/31 13:34:40;;;;;;;1.60;1.00;;;;;;;;;;31074089;28;20062;-78
2022/10/31 13:49:42;;;;;;;1.17;1.00;;;;;;;;;;31085537;28;20521;-77
2022/10/31 14:04:46;;;;;;;0.93;0.93;;;;;;;;;;31072223;28;20588;-78
2022/10/31 14:20:20;;;;;;;2.57;1.40;;;;;;;;;;31079637;28;20130;-77
2022/10/31 14:35:25;;;;;;;4.27;1.67;;;;;;;;;;31079244;28;20046;-78
2022/10/31 14:50:27;;;;;;;11.57;6.33;;;;;;;;;;31083067;28;20058;-77
2022/10/31 15:05:29;;;;;;;8.07;1.93;;;;;;;;;;31089288;28;20042;-78
2022/10/31 15:39:37;;;;;;;1.70;0.97;;;;;;;;;;31855673;27;20941;-75
2022/10/31 15:54:44;;;;;;;1.67;1.00;;;;;;;;;;31746662;28;20051;-75
2022/10/31 16:09:54;;;;;;;122.70;63.17;;;;;;;;;;31722758;28;20047;-76
2022/10/31 16:24:59;;;;;;;2.80;1.60;;;;;;;;;;31755619;28;20060;-76
2022/10/31 16:40:01;;;;;;;2.90;1.40;;;;;;;;;;31627163;28;20102;-76
2022/10/31 16:55:03;;;;;;;6.73;1.83;;;;;;;;;;31621577;28;20044;-75
2022/10/31 17:10:05;;;;;;;2.73;1.97;;;;;;;;;;31617763;28;20052;-75
2022/10/31 17:25:08;;;;;;;4.03;1.70;;;;;;;;;;31600808;28;20064;-76
2022/10/31 17:40:11;;;;;;;3.67;1.97;;;;;;;;;;31616483;28;20258;-76
2022/10/31 17:55:13;;;;;;;5.10;2.60;;;;;;;;;;31619885;28;20105;-76
2022/10/31 18:10:14;;;;;;;4.50;2.10;;;;;;;;;;31614457;28;20048;-77
2022/10/31 18:25:16;;;;;;;5.23;2.77;;;;;;;;;;31607934;28;20083;-76
2022/10/31 18:40:18;;;;;;;7.07;3.27;;;;;;;;;;31610869;28;20036;-76
2022/10/31 18:55:20;;;;;;;6.97;3.03;;;;;;;;;;31615614;28;20059;-76
2022/10/31 19:10:21;;;;;;;7.63;2.97;;;;;;;;;;31613332;28;20052;-77
2022/10/31 19:25:23;;;;;;;5.07;2.83;;;;;;;;;;31594756;28;20412;-75
2022/10/31 19:40:25;;;;;;;4.47;2.63;;;;;;;;;;31608234;28;20048;-74
2022/10/31 19:55:26;;;;;;;8.87;2.80;;;;;;;;;;31605866;28;20055;-76
2022/10/31 20:10:28;;;;;;;7.73;3.57;;;;;;;;;;31622408;28;20117;-77
2022/10/31 20:25:32;;;;;;;110.10;50.33;;;;;;;;;;31616135;28;20051;-76
2022/10/31 20:40:34;;;;;;;9.73;4.43;;;;;;;;;;31626166;28;20130;-77
2022/10/31 20:55:36;;;;;;;7.50;3.60;;;;;;;;;;31622427;28;20056;-76
2022/10/31 21:10:38;;;;;;;7.80;3.40;;;;;;;;;;31627652;28;20052;-75
2022/10/31 21:25:40;;;;;;;6.23;3.90;;;;;;;;;;31613032;28;20056;-75
2022/10/31 21:40:42;;;;;;;4.87;2.60;;;;;;;;;;31613862;28;20048;-75
2022/10/31 21:55:48;;;;;;;4.70;1.80;;;;;;;;;;31619785;28;20052;-74
2022/10/31 22:10:50;;;;;;;5.13;2.10;;;;;;;;;;31619116;28;20094;-75
2022/10/31 22:25:52;;;;;;;2.53;1.70;;;;;;;;;;31608513;28;20056;-75
2022/10/31 22:40:57;;;;;;;3.00;1.80;;;;;;;;;;31609802;28;20063;-75
2022/10/31 22:55:59;;;;;;;5.43;2.10;;;;;;;;;;31614637;28;20046;-75
2022/10/31 23:11:02;;;;;;;2.93;1.63;;;;;;;;;;31610149;28;20060;-75
2022/10/31 23:41:24;;;;;;;3.40;1.87;;;;;;;;;;31617840;28;20440;-76
2022/10/31 23:56:25;;;;;;;3.10;1.97;;;;;;;;;;31625867;28;20052;-75
